Time;durP1;ratioP1;P1;durP2;ratioP2;P2;SDS_P1;SDS_P2;PMS_P1;PMS_P2;Temp;Humidity;BMP_temperature;BMP_pressure;BME280_temperature;BME280_humidity;BME280_pressure;Samples;Min_cycle;Max_cycle;Signal;HPM_P1;HPM_P2
2023/01/14 00:01:06;;;;;;;12.80;2.20;;;11.00;99.90;;;;;;5051326;28;20188;-79
2023/01/14 00:03:32;;;;;;;7.47;2.08;;;11.00;99.90;;;;;;5051688;28;20187;-78
2023/01/14 00:06:01;;;;;;;5.73;1.77;;;11.10;99.90;;;;;;5051883;28;20180;-79
2023/01/14 00:08:29;;;;;;;9.88;2.60;;;11.10;99.90;;;;;;5067423;28;21187;-79
2023/01/14 00:10:55;;;;;;;9.57;2.22;;;11.10;99.90;;;;;;5052930;28;20223;-79
2023/01/14 00:13:21;;;;;;;10.73;2.03;;;11.10;99.90;;;;;;5069144;28;20156;-79
2023/01/14 00:15:55;;;;;;;15.50;2.55;;;11.10;99.90;;;;;;5073274;28;20168;-79
2023/01/14 00:18:21;;;;;;;9.20;2.90;;;11.10;99.90;;;;;;5061762;28;20192;-79
2023/01/14 00:21:14;;;;;;;9.27;2.13;;;11.10;99.90;;;;;;5067877;28;20188;-79
2023/01/14 00:23:40;;;;;;;6.63;1.85;;;11.00;99.90;;;;;;5026700;28;20181;-79
2023/01/14 00:26:12;;;;;;;10.73;1.90;;;11.00;99.90;;;;;;5051766;28;20314;-79
2023/01/14 00:28:38;;;;;;;9.45;1.95;;;11.00;99.90;;;;;;5067944;28;20671;-79
2023/01/14 00:31:10;;;;;;;9.98;1.75;;;10.90;99.90;;;;;;5068461;28;20282;-79
2023/01/14 00:33:37;;;;;;;12.77;3.33;;;10.90;99.90;;;;;;5034802;28;20183;-79
2023/01/14 00:36:06;;;;;;;14.95;3.22;;;10.90;99.90;;;;;;5051492;28;20172;-79
2023/01/14 00:38:32;;;;;;;12.27;3.08;;;10.90;99.90;;;;;;5051365;28;20187;-79
2023/01/14 00:41:01;;;;;;;13.02;3.80;;;10.90;99.90;;;;;;5068071;28;20664;-79
2023/01/14 00:43:27;;;;;;;11.98;3.20;;;10.80;99.90;;;;;;5050856;28;20333;-79
2023/01/14 00:45:53;;;;;;;16.58;3.67;;;10.80;99.90;;;;;;5051407;28;20259;-79
2023/01/14 00:48:19;;;;;;;17.00;3.80;;;10.70;99.90;;;;;;5069101;28;20259;-79
2023/01/14 00:50:45;;;;;;;10.00;2.73;;;10.70;99.90;;;;;;5050451;28;20570;-79
2023/01/14 00:53:10;;;;;;;19.37;3.60;;;10.60;99.90;;;;;;5055965;28;20176;-79
2023/01/14 00:55:36;;;;;;;13.83;3.00;;;10.60;99.90;;;;;;5051308;28;20207;-79
2023/01/14 00:58:02;;;;;;;9.60;2.50;;;10.50;99.90;;;;;;5069329;28;20636;-79
2023/01/14 01:00:28;;;;;;;8.30;3.22;;;10.50;99.90;;;;;;5050583;28;20619;-79
2023/01/14 01:02:54;;;;;;;14.95;2.50;;;10.50;99.90;;;;;;5051117;28;20221;-79
2023/01/14 01:05:20;;;;;;;12.13;2.57;;;10.50;99.90;;;;;;5051760;28;20168;-79
2023/01/14 01:07:45;;;;;;;13.37;3.27;;;10.40;99.90;;;;;;5069022;28;20656;-79
2023/01/14 01:10:13;;;;;;;7.95;2.45;;;10.40;99.90;;;;;;5068477;28;20689;-79
2023/01/14 01:12:39;;;;;;;9.10;2.13;;;10.50;99.90;;;;;;5059918;28;20200;-80
2023/01/14 01:15:05;;;;;;;12.10;2.67;;;10.40;99.90;;;;;;5051217;28;20246;-80
2023/01/14 01:17:30;;;;;;;7.07;1.90;;;10.50;99.90;;;;;;5050984;28;20532;-80
2023/01/14 01:19:56;;;;;;;6.87;2.00;;;10.50;99.90;;;;;;5050664;28;20199;-80
2023/01/14 01:22:22;;;;;;;12.20;3.33;;;10.50;99.90;;;;;;5068862;28;20674;-80
2023/01/14 01:24:47;;;;;;;11.90;2.10;;;10.50;99.90;;;;;;5069095;28;20218;-80
2023/01/14 01:27:13;;;;;;;11.53;3.40;;;10.60;99.90;;;;;;5068692;28;20179;-80
2023/01/14 01:29:39;;;;;;;10.67;2.80;;;10.60;99.90;;;;;;5055464;28;20214;-80
2023/01/14 01:32:05;;;;;;;7.33;2.00;;;10.60;99.90;;;;;;5033908;28;20243;-80
2023/01/14 01:34:30;;;;;;;7.83;2.00;;;10.70;99.90;;;;;;5069156;28;20529;-80
2023/01/14 01:36:56;;;;;;;9.90;2.67;;;10.70;99.90;;;;;;5051218;28;20608;-80
2023/01/14 01:39:22;;;;;;;10.33;2.27;;;10.70;99.90;;;;;;5050836;28;20193;-80
2023/01/14 01:41:47;;;;;;;7.07;2.60;;;10.80;99.90;;;;;;5033462;28;20211;-80
2023/01/14 01:44:14;;;;;;;8.07;2.10;;;10.80;99.90;;;;;;5034244;28;20253;-80
2023/01/14 01:46:41;;;;;;;8.00;1.57;;;10.80;99.90;;;;;;5050752;28;20165;-79
2023/01/14 01:49:15;;;;;;;7.72;1.65;;;10.80;99.90;;;;;;5067105;28;20180;-79
2023/01/14 01:51:49;;;;;;;12.77;2.00;;;10.90;99.90;;;;;;5054729;28;20745;-79
2023/01/14 01:54:18;;;;;;;10.15;2.00;;;10.90;99.90;;;;;;5054346;28;20169;-79
2023/01/14 01:56:46;;;;;;;11.30;2.28;;;10.90;99.90;;;;;;5037468;28;20233;-79
2023/01/14 01:59:16;;;;;;;5.50;1.67;;;10.90;99.90;;;;;;5054022;28;20283;-79
2023/01/14 02:01:42;;;;;;;9.30;2.33;;;10.90;99.90;;;;;;5052531;28;20180;-79
2023/01/14 02:04:10;;;;;;;13.25;2.00;;;10.90;99.90;;;;;;5071591;28;20175;-79
2023/01/14 02:09:10;;;;;;;10.07;1.73;;;10.90;99.90;;;;;;5012598;28;20275;-79
2023/01/14 02:12:02;;;;;;;9.05;1.73;;;10.90;99.90;;;;;;5015742;28;20197;-79
2023/01/14 02:14:44;;;;;;;13.10;1.90;;;10.90;99.90;;;;;;4990050;28;20272;-79
2023/01/14 02:17:21;;;;;;;13.57;1.88;;;10.90;99.90;;;;;;5037350;28;20197;-79
2023/01/14 02:20:14;;;;;;;13.15;3.25;;;10.90;99.90;;;;;;5017447;28;20676;-80
2023/01/14 02:23:08;;;;;;;13.48;1.90;;;10.90;99.90;;;;;;5034283;28;20169;-80
2023/01/14 02:26:15;;;;;;;14.70;2.00;;;10.80;99.90;;;;;;5017089;28;20173;-79
2023/01/14 02:29:18;;;;;;;15.95;2.20;;;10.80;99.90;;;;;;5023379;28;20284;-79
2023/01/14 02:32:05;;;;;;;9.63;2.00;;;10.80;99.90;;;;;;5016672;28;20200;-79
2023/01/14 02:34:44;;;;;;;8.95;1.67;;;10.70;99.90;;;;;;5017459;28;20184;-79
2023/01/14 02:37:50;;;;;;;10.52;1.95;;;10.70;99.90;;;;;;5051552;28;20185;-79
2023/01/14 02:40:29;;;;;;;7.15;2.03;;;10.70;99.90;;;;;;5030184;28;20177;-80
2023/01/14 02:46:13;;;;;;;8.80;2.20;;;10.70;99.90;;;;;;5033554;28;20169;-80
2023/01/14 02:48:40;;;;;;;6.75;2.10;;;10.70;99.90;;;;;;5033748;28;20347;-79
2023/01/14 02:51:06;;;;;;;6.78;1.60;;;10.70;99.90;;;;;;5032767;28;20208;-79
2023/01/14 02:53:32;;;;;;;13.57;2.20;;;10.70;99.90;;;;;;5033559;28;20177;-79
2023/01/14 02:56:01;;;;;;;6.45;1.98;;;10.60;99.90;;;;;;5016800;28;20165;-80
2023/01/14 02:58:46;;;;;;;8.52;1.55;;;10.60;99.90;;;;;;5016907;28;20305;-80
2023/01/14 03:01:35;;;;;;;11.82;2.03;;;10.60;99.90;;;;;;5000927;28;20215;-80
2023/01/14 03:04:10;;;;;;;7.15;2.28;;;10.60;99.90;;;;;;5033996;28;20302;-80
2023/01/14 03:06:55;;;;;;;11.52;4.32;;;10.60;99.90;;;;;;5027823;28;20191;-80
2023/01/14 03:09:44;;;;;;;7.63;1.63;;;10.60;99.90;;;;;;5053303;28;20586;-80
2023/01/14 03:12:42;;;;;;;8.60;1.85;;;10.60;99.90;;;;;;5070636;28;20235;-81
2023/01/14 03:15:23;;;;;;;8.45;1.70;;;10.60;99.90;;;;;;5033117;28;20338;-81
2023/01/14 03:18:21;;;;;;;12.15;1.90;;;10.50;99.90;;;;;;5070782;28;20196;-80
2023/01/14 03:20:55;;;;;;;11.52;2.65;;;10.40;99.90;;;;;;5047263;28;20692;-80
2023/01/14 03:23:23;;;;;;;7.68;1.77;;;10.40;99.90;;;;;;5070258;28;20623;-80
2023/01/14 03:25:50;;;;;;;6.38;1.92;;;10.30;99.90;;;;;;5036546;28;20176;-80
2023/01/14 03:28:34;;;;;;;10.30;1.50;;;10.20;99.90;;;;;;5052920;28;20204;-80
2023/01/14 03:31:08;;;;;;;5.43;1.73;;;10.20;99.90;;;;;;5035558;28;20582;-80
2023/01/14 03:33:55;;;;;;;12.20;2.10;;;10.10;99.90;;;;;;5052586;28;20535;-80
2023/01/14 03:36:23;;;;;;;8.20;1.80;;;10.00;99.90;;;;;;5019662;28;20678;-79
2023/01/14 03:38:56;;;;;;;5.45;1.60;;;10.00;99.90;;;;;;5052351;28;20192;-80
2023/01/14 03:44:23;;;;;;;6.95;1.58;;;9.90;99.90;;;;;;5074815;28;20179;-79
2023/01/14 03:46:50;;;;;;;7.88;1.70;;;9.90;99.90;;;;;;5070129;28;20220;-80
2023/01/14 03:49:16;;;;;;;13.35;1.77;;;9.80;99.90;;;;;;5069995;28;20494;-80
2023/01/14 03:51:49;;;;;;;7.85;2.00;;;9.80;99.90;;;;;;5051035;28;20587;-81
2023/01/14 03:54:29;;;;;;;4.03;1.40;;;9.80;99.90;;;;;;5051645;28;20169;-81
2023/01/14 03:57:09;;;;;;;13.07;2.17;;;9.70;99.90;;;;;;5052158;28;20203;-80
2023/01/14 03:59:58;;;;;;;11.93;2.17;;;9.70;99.90;;;;;;5018822;28;20569;-80
2023/01/14 04:02:25;;;;;;;12.60;1.67;;;9.70;99.90;;;;;;5052079;28;20176;-80
2023/01/14 04:04:51;;;;;;;6.60;1.85;;;9.70;99.90;;;;;;5052124;28;20248;-80
2023/01/14 04:07:17;;;;;;;7.45;1.75;;;9.60;99.90;;;;;;5069699;28;20610;-79
2023/01/14 04:09:43;;;;;;;7.72;1.48;;;9.60;99.90;;;;;;5069279;28;20699;-80
2023/01/14 04:12:09;;;;;;;8.27;2.40;;;9.60;99.90;;;;;;5069479;28;20278;-80
2023/01/14 04:17:19;;;;;;;9.15;1.60;;;9.50;99.90;;;;;;5051874;28;20195;-79
2023/01/14 04:19:44;;;;;;;8.97;1.83;;;9.50;99.90;;;;;;5052722;28;20164;-80
2023/01/14 04:22:10;;;;;;;7.83;1.60;;;9.50;99.90;;;;;;5040148;28;20168;-80
2023/01/14 04:24:36;;;;;;;15.80;3.13;;;9.40;99.90;;;;;;5051802;28;20184;-80
2023/01/14 04:27:02;;;;;;;10.20;1.53;;;9.40;99.90;;;;;;5051791;28;20192;-80
2023/01/14 04:29:28;;;;;;;10.43;2.50;;;9.40;99.90;;;;;;5051683;28;20589;-79
2023/01/14 04:31:54;;;;;;;7.57;1.80;;;9.40;99.90;;;;;;5050873;28;20200;-80
2023/01/14 04:34:19;;;;;;;9.10;2.90;;;9.40;99.90;;;;;;5051840;28;20164;-80
2023/01/14 04:36:45;;;;;;;7.90;2.80;;;9.40;99.90;;;;;;5069524;28;20725;-79
2023/01/14 04:39:11;;;;;;;10.30;1.77;;;9.30;99.90;;;;;;5051692;28;20169;-80
2023/01/14 04:44:21;;;;;;;9.80;2.20;;;9.30;99.90;;;;;;5051565;28;20272;-79
2023/01/14 04:46:47;;;;;;;5.30;1.63;;;9.40;99.90;;;;;;5051456;28;20306;-79
2023/01/14 04:49:12;;;;;;;15.73;1.63;;;9.40;99.90;;;;;;5051523;28;20191;-79
2023/01/14 04:51:38;;;;;;;7.70;2.17;;;9.40;99.90;;;;;;5068383;28;20242;-79
2023/01/14 04:54:04;;;;;;;9.13;1.77;;;9.40;99.90;;;;;;5034926;28;20697;-79
2023/01/14 04:56:29;;;;;;;8.30;1.80;;;9.30;99.90;;;;;;5069266;28;20179;-80
2023/01/14 04:58:57;;;;;;;7.23;2.73;;;9.40;99.90;;;;;;5054973;28;20212;-79
2023/01/14 05:01:23;;;;;;;7.68;2.42;;;9.30;99.90;;;;;;5050913;28;20175;-80
2023/01/14 05:03:49;;;;;;;6.80;1.83;;;9.30;99.90;;;;;;5068995;28;20345;-80
2023/01/14 05:06:15;;;;;;;8.17;2.13;;;9.30;99.90;;;;;;5051440;28;20215;-78
2023/01/14 05:08:40;;;;;;;9.83;1.80;;;9.30;99.90;;;;;;5068900;28;20615;-78
2023/01/14 05:11:06;;;;;;;14.97;3.23;;;9.30;99.90;;;;;;5050550;28;20274;-78
2023/01/14 05:13:32;;;;;;;15.37;1.97;;;9.30;99.90;;;;;;5051219;28;20197;-78
2023/01/14 05:16:02;;;;;;;8.80;1.77;;;9.30;99.90;;;;;;5051278;28;20180;-78
2023/01/14 05:18:27;;;;;;;8.75;1.80;;;9.30;99.90;;;;;;5034125;28;20200;-78
2023/01/14 05:20:53;;;;;;;7.97;1.40;;;9.30;99.90;;;;;;5068751;28;20175;-79
2023/01/14 05:23:19;;;;;;;8.93;1.73;;;9.30;99.90;;;;;;5050697;28;20168;-78
2023/01/14 05:25:45;;;;;;;7.77;1.33;;;9.20;99.90;;;;;;5053252;28;20591;-79
2023/01/14 05:28:14;;;;;;;8.90;3.20;;;9.20;99.90;;;;;;5073103;28;20642;-78
2023/01/14 05:30:40;;;;;;;7.85;1.35;;;9.20;99.90;;;;;;5054703;28;20172;-78
2023/01/14 05:33:06;;;;;;;6.97;1.40;;;9.20;99.90;;;;;;5072775;28;20241;-79
2023/01/14 05:35:32;;;;;;;5.63;1.57;;;9.20;99.90;;;;;;5078856;28;20582;-79
2023/01/14 05:37:58;;;;;;;5.65;1.80;;;9.20;99.90;;;;;;5076922;28;20230;-79
2023/01/14 05:40:23;;;;;;;8.93;1.63;;;9.20;99.90;;;;;;5072036;28;20255;-79
2023/01/14 05:45:49;;;;;;;10.32;2.45;;;9.20;99.90;;;;;;5072101;28;20203;-79
2023/01/14 05:48:16;;;;;;;7.18;1.55;;;9.20;99.90;;;;;;5010457;28;20700;-79
2023/01/14 05:50:43;;;;;;;8.95;2.05;;;9.20;99.90;;;;;;5035565;28;20181;-79
2023/01/14 05:53:09;;;;;;;5.38;1.60;;;9.20;99.90;;;;;;5034211;28;20190;-80
2023/01/14 05:55:35;;;;;;;4.40;1.40;;;9.20;99.90;;;;;;5034424;28;20169;-79
2023/01/14 05:58:05;;;;;;;6.50;1.60;;;9.20;99.90;;;;;;5051643;28;20671;-79
2023/01/14 06:06:22;;;;;;;6.38;1.50;;;9.20;99.90;;;;;;5034139;28;20184;-79
2023/01/14 06:08:52;;;;;;;5.80;1.50;;;9.20;99.90;;;;;;5034308;28;20285;-79
2023/01/14 06:11:20;;;;;;;7.10;1.90;;;9.30;99.90;;;;;;5051252;28;20196;-80
2023/01/14 06:13:49;;;;;;;5.93;2.00;;;9.30;99.90;;;;;;5039794;28;20173;-80
2023/01/14 06:16:15;;;;;;;7.07;1.63;;;9.40;99.90;;;;;;5051306;28;20191;-80
2023/01/14 06:18:42;;;;;;;9.13;2.70;;;9.40;99.90;;;;;;5017351;28;20399;-80
2023/01/14 06:21:20;;;;;;;10.02;2.00;;;9.40;99.90;;;;;;5033056;28;20585;-78
2023/01/14 06:23:46;;;;;;;5.75;1.85;;;9.50;99.90;;;;;;5034224;28;20695;-79
2023/01/14 06:26:33;;;;;;;8.25;1.75;;;9.50;99.90;;;;;;5051896;28;20169;-79
2023/01/14 06:29:08;;;;;;;11.40;1.70;;;9.50;99.90;;;;;;5018690;28;20161;-80
2023/01/14 06:31:36;;;;;;;10.80;1.73;;;9.60;99.90;;;;;;5032738;28;20204;-79
2023/01/14 06:34:01;;;;;;;9.45;1.73;;;9.60;99.90;;;;;;5051809;28;20283;-79
2023/01/14 06:36:28;;;;;;;11.47;2.20;;;9.70;99.90;;;;;;5051307;28;20641;-79
2023/01/14 06:38:54;;;;;;;9.75;1.80;;;9.70;99.90;;;;;;5033521;28;20185;-79
2023/01/14 06:41:20;;;;;;;7.77;1.57;;;9.70;99.90;;;;;;5051228;28;20676;-79
2023/01/14 06:43:46;;;;;;;10.18;1.70;;;9.70;99.90;;;;;;5033676;28;20177;-79
2023/01/14 06:46:15;;;;;;;8.98;2.28;;;9.70;99.90;;;;;;5017274;28;20181;-79
2023/01/14 06:48:43;;;;;;;10.13;1.80;;;9.80;99.90;;;;;;5051494;28;20793;-80
2023/01/14 06:51:18;;;;;;;7.70;1.48;;;9.80;99.90;;;;;;5053507;28;20201;-79
2023/01/14 06:53:44;;;;;;;10.30;1.80;;;9.80;99.90;;;;;;5033536;28;20180;-79
2023/01/14 06:56:13;;;;;;;8.13;1.50;;;9.80;99.90;;;;;;5033352;28;20306;-78
2023/01/14 06:58:39;;;;;;;5.85;1.27;;;9.80;99.90;;;;;;5032740;28;20193;-80
2023/01/14 07:01:06;;;;;;;8.55;2.17;;;9.80;99.90;;;;;;5053887;28;20663;-79
2023/01/14 07:03:32;;;;;;;9.85;1.95;;;9.80;99.90;;;;;;5050771;28;20541;-79
2023/01/14 07:06:01;;;;;;;8.30;2.28;;;9.80;99.90;;;;;;5051280;28;20268;-80
2023/01/14 07:08:27;;;;;;;10.68;2.10;;;9.80;99.90;;;;;;5032857;28;20254;-79
2023/01/14 07:10:53;;;;;;;7.90;1.90;;;9.80;99.90;;;;;;5050620;28;20551;-80
2023/01/14 07:13:20;;;;;;;11.63;2.60;;;9.70;99.90;;;;;;5032699;28;20176;-79
2023/01/14 07:15:47;;;;;;;6.20;1.65;;;9.70;99.90;;;;;;5032949;28;20685;-79
2023/01/14 07:18:13;;;;;;;10.45;2.22;;;9.70;99.90;;;;;;5033144;28;20811;-80
2023/01/14 07:20:42;;;;;;;3.75;1.40;;;9.70;99.90;;;;;;5050227;28;20173;-82
2023/01/14 07:23:08;;;;;;;8.43;1.20;;;9.60;99.90;;;;;;5032819;28;20174;-79
2023/01/14 07:25:35;;;;;;;10.63;2.80;;;9.60;99.90;;;;;;5050609;28;20165;-79
2023/01/14 07:28:01;;;;;;;9.20;1.67;;;9.60;99.90;;;;;;5056279;28;20185;-78
2023/01/14 07:30:27;;;;;;;7.78;1.75;;;9.60;99.90;;;;;;5032187;28;20180;-79
2023/01/14 07:32:53;;;;;;;8.73;1.80;;;9.60;99.90;;;;;;5032580;28;20196;-79
2023/01/14 07:35:18;;;;;;;8.70;1.50;;;9.50;99.90;;;;;;5050452;28;20564;-79
2023/01/14 07:37:44;;;;;;;7.07;1.70;;;9.50;99.90;;;;;;5050392;28;20181;-79
2023/01/14 07:40:10;;;;;;;10.17;1.80;;;9.50;99.90;;;;;;5034178;28;20169;-82
2023/01/14 07:42:36;;;;;;;9.25;2.40;;;9.40;99.90;;;;;;5052840;28;20180;-82
2023/01/14 07:45:02;;;;;;;9.60;1.90;;;9.30;99.90;;;;;;5050354;28;20173;-80
2023/01/14 07:47:28;;;;;;;7.65;1.35;;;9.30;99.90;;;;;;5050315;28;20938;-80
2023/01/14 07:49:54;;;;;;;10.10;1.93;;;9.20;99.90;;;;;;5050280;28;20218;-80
2023/01/14 07:52:26;;;;;;;7.17;1.70;;;9.10;99.90;;;;;;5065484;28;20200;-80
2023/01/14 07:54:53;;;;;;;6.88;2.08;;;9.10;99.90;;;;;;5056450;28;20214;-80
2023/01/14 07:57:19;;;;;;;10.97;2.13;;;8.90;99.90;;;;;;5072218;28;20187;-80
2023/01/14 07:59:45;;;;;;;11.87;2.27;;;8.80;99.90;;;;;;5071397;28;20617;-80
2023/01/14 08:02:12;;;;;;;9.33;1.57;;;8.80;99.90;;;;;;5045248;28;20546;-80
2023/01/14 08:04:39;;;;;;;9.95;1.65;;;8.80;99.90;;;;;;5048263;28;20265;-81
2023/01/14 08:07:06;;;;;;;7.10;1.95;;;8.80;99.90;;;;;;5052035;28;20196;-78
2023/01/14 08:09:33;;;;;;;11.30;2.30;;;8.70;99.90;;;;;;5061956;28;20641;-79
2023/01/14 08:11:59;;;;;;;8.82;2.38;;;8.80;99.90;;;;;;5038961;28;20209;-80
2023/01/14 08:14:24;;;;;;;8.77;2.23;;;8.80;99.90;;;;;;5075020;28;20180;-78
2023/01/14 08:16:50;;;;;;;5.77;2.00;;;8.80;99.90;;;;;;5084220;28;20562;-78
2023/01/14 08:19:17;;;;;;;9.10;2.00;;;8.80;99.90;;;;;;5095406;22;20315;-75
2023/01/14 08:21:43;;;;;;;8.68;2.67;;;8.80;99.90;;;;;;5080381;28;20722;-75
2023/01/14 08:24:09;;;;;;;4.97;1.60;;;8.80;99.90;;;;;;5072035;28;20668;-75
2023/01/14 08:26:35;;;;;;;6.07;2.30;;;8.90;99.90;;;;;;5090056;28;20167;-75
2023/01/14 08:29:01;;;;;;;8.50;1.70;;;8.90;99.90;;;;;;5070126;28;20620;-75
2023/01/14 08:31:26;;;;;;;9.73;2.07;;;8.90;99.90;;;;;;5047575;28;20240;-76
2023/01/14 08:33:53;;;;;;;5.70;1.53;;;9.00;99.90;;;;;;5080371;28;20653;-75
2023/01/14 08:36:19;;;;;;;12.52;3.17;;;9.10;99.90;;;;;;5071718;28;20183;-76
2023/01/14 08:38:50;;;;;;;7.47;1.65;;;9.20;99.90;;;;;;5088178;28;20187;-76
2023/01/14 08:41:17;;;;;;;3.67;1.20;;;9.20;99.90;;;;;;5079780;28;20176;-76
2023/01/14 08:43:46;;;;;;;2.28;0.90;;;9.20;99.90;;;;;;5086411;28;20183;-76
2023/01/14 08:46:12;;;;;;;4.15;1.00;;;9.30;99.90;;;;;;5090056;28;20179;-76
2023/01/14 08:48:37;;;;;;;4.93;0.90;;;9.30;99.90;;;;;;5084706;28;20188;-75
2023/01/14 08:51:09;;;;;;;3.83;1.00;;;9.40;99.90;;;;;;5051154;28;20741;-76
2023/01/14 08:53:36;;;;;;;4.15;1.05;;;9.40;99.90;;;;;;5050973;28;20168;-76
2023/01/14 08:56:04;;;;;;;4.93;1.08;;;9.50;99.90;;;;;;5033153;28;20168;-76
2023/01/14 08:58:30;;;;;;;5.80;1.02;;;9.60;99.90;;;;;;5082062;28;20572;-76
2023/01/14 09:00:57;;;;;;;3.70;1.10;;;9.60;99.90;;;;;;5070736;28;20487;-76
2023/01/14 09:03:25;;;;;;;6.50;1.15;;;9.60;99.90;;;;;;5070992;28;20175;-76
2023/01/14 09:05:56;;;;;;;3.92;0.90;;;9.60;99.90;;;;;;5089215;28;20194;-76
2023/01/14 09:19:23;;;;;;;2.28;0.80;;;9.90;99.90;;;;;;5067642;28;20239;-75
2023/01/14 09:21:49;;;;;;;1.93;0.50;;;9.90;99.90;;;;;;5089798;28;20178;-75
2023/01/14 09:24:15;;;;;;;4.20;0.77;;;10.00;99.90;;;;;;5088943;28;20160;-75
2023/01/14 09:26:41;;;;;;;2.90;0.60;;;10.00;99.90;;;;;;5070496;28;20179;-75
2023/01/14 09:29:06;;;;;;;2.40;0.80;;;10.10;99.90;;;;;;5089364;28;20639;-75
2023/01/14 09:31:32;;;;;;;5.77;1.00;;;10.10;99.90;;;;;;5070153;28;20211;-75
2023/01/14 09:33:58;;;;;;;1.97;0.70;;;10.10;99.90;;;;;;5089367;28;20213;-75
2023/01/14 09:36:23;;;;;;;2.03;0.53;;;10.10;99.90;;;;;;5087909;28;20225;-76
2023/01/14 09:38:49;;;;;;;2.33;0.60;;;10.20;99.90;;;;;;5071146;28;20281;-75
2023/01/14 09:41:29;;;;;;;5.53;0.70;;;10.20;99.90;;;;;;5051933;28;20171;-75
2023/01/14 09:43:55;;;;;;;3.15;0.50;;;10.20;99.90;;;;;;5077360;28;20282;-75
2023/01/14 09:46:24;;;;;;;2.72;0.80;;;10.30;99.90;;;;;;5070671;28;20273;-76
2023/01/14 09:48:51;;;;;;;1.50;0.57;;;10.30;99.90;;;;;;5085122;28;20273;-75
2023/01/14 09:51:46;;;;;;;1.30;0.60;;;10.30;99.90;;;;;;5069367;28;20729;-75
2023/01/14 09:54:32;;;;;;;3.20;0.60;;;10.30;99.90;;;;;;5070158;28;20176;-77
2023/01/14 09:57:16;;;;;;;1.88;0.93;;;10.40;99.90;;;;;;5082636;28;20179;-76
2023/01/14 10:00:05;;;;;;;4.28;0.70;;;10.40;99.90;;;;;;5072331;28;20264;-74
2023/01/14 10:02:47;;;;;;;3.92;0.60;;;10.50;99.90;;;;;;5070341;28;20237;-74
2023/01/14 10:05:22;;;;;;;1.45;0.57;;;10.50;99.90;;;;;;5066102;28;20173;-77
2023/01/14 10:07:49;;;;;;;1.35;0.50;;;10.60;99.90;;;;;;5071168;28;20725;-75
2023/01/14 10:10:29;;;;;;;2.08;0.60;;;10.60;99.90;;;;;;5050202;28;20172;-75
2023/01/14 10:12:58;;;;;;;2.28;0.60;;;10.70;99.90;;;;;;5083536;28;20559;-75
2023/01/14 10:15:32;;;;;;;2.45;0.75;;;10.70;99.90;;;;;;5074265;28;20254;-74
2023/01/14 10:18:07;;;;;;;2.20;0.60;;;10.70;99.90;;;;;;5062409;28;20205;-75
2023/01/14 10:21:00;;;;;;;1.40;0.60;;;10.80;99.90;;;;;;5073549;28;20545;-75
2023/01/14 10:23:45;;;;;;;1.90;0.50;;;10.80;99.90;;;;;;5072586;28;20172;-75
2023/01/14 10:26:19;;;;;;;3.83;0.60;;;10.90;99.90;;;;;;5068175;28;20205;-75
2023/01/14 10:28:51;;;;;;;6.20;0.63;;;10.90;99.90;;;;;;5081883;28;20564;-75
2023/01/14 10:31:24;;;;;;;2.80;1.20;;;11.00;99.90;;;;;;5073121;28;20249;-75
2023/01/14 10:33:50;;;;;;;2.35;0.70;;;11.00;99.90;;;;;;5091793;28;20686;-75
2023/01/14 10:36:21;;;;;;;3.70;0.90;;;11.10;99.90;;;;;;5093122;28;20182;-75
2023/01/14 10:38:47;;;;;;;2.20;0.60;;;11.10;99.90;;;;;;5091530;28;20198;-75
2023/01/14 10:41:14;;;;;;;2.05;0.70;;;11.00;99.90;;;;;;5090970;28;20167;-75
2023/01/14 10:43:44;;;;;;;1.52;0.60;;;11.10;99.90;;;;;;5091630;28;20573;-74
2023/01/14 10:46:18;;;;;;;1.75;0.68;;;11.10;99.90;;;;;;5073377;28;20183;-74
2023/01/14 10:49:00;;;;;;;3.65;0.70;;;11.10;99.90;;;;;;5047353;28;20188;-74
2023/01/14 10:51:34;;;;;;;1.85;0.80;;;11.10;99.90;;;;;;5072588;28;20653;-74
2023/01/14 10:54:27;;;;;;;2.72;0.95;;;11.00;99.90;;;;;;5056641;28;20172;-74
2023/01/14 10:56:57;;;;;;;4.93;0.85;;;11.00;99.90;;;;;;5071293;28;20182;-76
2023/01/14 10:59:44;;;;;;;2.03;0.77;;;10.90;99.90;;;;;;5055393;28;20324;-74
2023/01/14 11:02:22;;;;;;;3.05;0.70;;;10.80;99.90;;;;;;5033245;28;20169;-75
2023/01/14 11:04:49;;;;;;;1.85;0.70;;;10.60;99.90;;;;;;5049907;28;20271;-75
2023/01/14 11:07:32;;;;;;;5.63;0.77;;;10.60;99.90;;;;;;5051089;28;20169;-74
2023/01/14 11:10:09;;;;;;;2.35;1.02;;;10.50;99.90;;;;;;5074515;28;20200;-76
2023/01/14 11:12:34;;;;;;;3.72;0.80;;;10.50;99.90;;;;;;5050956;28;20194;-76
2023/01/14 11:15:00;;;;;;;5.57;0.70;;;10.40;99.90;;;;;;5093038;28;20652;-77
2023/01/14 11:17:28;;;;;;;1.70;0.75;;;10.40;99.90;;;;;;5091453;28;20203;-76
2023/01/14 11:20:23;;;;;;;3.13;0.70;;;10.40;99.90;;;;;;5090559;28;20712;-76
2023/01/14 11:23:22;;;;;;;2.90;0.70;;;10.30;99.90;;;;;;5072390;28;20654;-75
2023/01/14 11:25:50;;;;;;;4.47;1.00;;;10.30;99.90;;;;;;5083466;28;20267;-76
2023/01/14 11:28:16;;;;;;;3.50;1.00;;;10.40;99.90;;;;;;5072637;28;20581;-76
2023/01/14 11:30:46;;;;;;;3.27;0.90;;;10.40;99.90;;;;;;5072101;28;20180;-76
2023/01/14 11:33:24;;;;;;;4.30;1.17;;;10.40;99.90;;;;;;5072756;28;20955;-77
2023/01/14 11:35:53;;;;;;;5.72;0.90;;;10.30;99.90;;;;;;5056672;28;20191;-76
2023/01/14 11:38:22;;;;;;;6.40;0.80;;;10.30;99.90;;;;;;5067104;28;20200;-77
2023/01/14 11:43:53;;;;;;;4.63;1.17;;;10.30;99.90;;;;;;5068051;28;20176;-77
2023/01/14 11:46:19;;;;;;;4.25;0.82;;;10.30;99.90;;;;;;5069687;28;20190;-76
2023/01/14 11:49:01;;;;;;;3.20;0.75;;;10.30;99.90;;;;;;5076387;28;20199;-76
2023/01/14 11:51:29;;;;;;;3.25;1.00;;;10.20;99.90;;;;;;5072111;28;20206;-76
2023/01/14 11:53:56;;;;;;;3.55;0.90;;;10.30;99.90;;;;;;5071892;28;20647;-76
2023/01/14 11:56:31;;;;;;;4.45;0.85;;;10.30;99.90;;;;;;5074933;28;20179;-76
2023/01/14 11:58:59;;;;;;;4.47;1.10;;;10.30;99.90;;;;;;5063442;28;20280;-76
2023/01/14 12:01:36;;;;;;;2.60;0.70;;;10.30;99.90;;;;;;5089449;28;20702;-76
2023/01/14 12:04:18;;;;;;;4.82;0.90;;;10.30;99.90;;;;;;5072191;28;20198;-75
2023/01/14 12:06:58;;;;;;;3.95;0.90;;;10.40;99.90;;;;;;5071786;28;20176;-76
2023/01/14 12:09:52;;;;;;;5.13;1.08;;;10.40;99.90;;;;;;5090162;28;20183;-76
2023/01/14 12:16:48;;;;;;;1.40;0.65;;;10.40;99.90;;;;;;5072188;28;20234;-75
2023/01/14 12:18:26;;;;;;;1.63;0.70;;;10.40;99.90;;;;;;5057843;28;20226;-75
2023/01/14 12:20:52;;;;;;;2.78;0.85;;;10.50;99.90;;;;;;5070532;28;20187;-75
2023/01/14 12:23:24;;;;;;;2.72;0.60;;;10.50;99.90;;;;;;5089835;28;20229;-75
2023/01/14 12:25:53;;;;;;;3.22;0.82;;;10.50;99.90;;;;;;5089850;28;20167;-75
2023/01/14 12:28:36;;;;;;;1.42;0.50;;;10.50;99.90;;;;;;5071753;28;20191;-75
2023/01/14 12:31:12;;;;;;;3.03;1.05;;;10.50;99.90;;;;;;5070864;28;20195;-75
2023/01/14 12:33:44;;;;;;;1.50;0.68;;;10.50;99.90;;;;;;5088920;28;20170;-75
2023/01/14 12:36:23;;;;;;;2.58;0.80;;;10.50;99.90;;;;;;5089516;28;20171;-75
2023/01/14 12:47:45;;;;;;;2.22;1.05;;;10.50;99.90;;;;;;5089537;28;20199;-75
2023/01/14 12:50:13;;;;;;;4.03;0.60;;;10.50;99.90;;;;;;5070623;28;20167;-74
2023/01/14 12:52:49;;;;;;;2.83;0.60;;;10.50;99.90;;;;;;5088910;28;20206;-75
2023/01/14 12:55:37;;;;;;;1.58;0.60;;;10.50;99.90;;;;;;5071346;28;20170;-74
2023/01/14 12:58:06;;;;;;;2.10;0.90;;;10.50;99.90;;;;;;5089119;28;20676;-75
2023/01/14 13:00:37;;;;;;;3.15;0.70;;;10.50;99.90;;;;;;5070940;28;20600;-74
2023/01/14 13:03:19;;;;;;;1.35;0.70;;;10.50;99.90;;;;;;5037112;28;20175;-75
2023/01/14 13:05:45;;;;;;;2.78;0.70;;;10.60;99.90;;;;;;5071821;28;20225;-75
2023/01/14 13:08:26;;;;;;;2.03;0.68;;;10.60;99.90;;;;;;5071026;28;20964;-75
2023/01/14 13:11:18;;;;;;;2.20;0.68;;;10.60;99.90;;;;;;5071074;28;20548;-76
2023/01/14 13:13:54;;;;;;;2.90;0.60;;;10.60;99.90;;;;;;5070969;28;20178;-75
2023/01/14 13:16:41;;;;;;;1.50;0.60;;;10.70;99.90;;;;;;5089362;28;20173;-75
2023/01/14 13:19:26;;;;;;;1.30;0.63;;;10.70;99.90;;;;;;5088638;28;20199;-75
2023/01/14 13:22:00;;;;;;;1.55;0.68;;;10.70;99.90;;;;;;5088517;28;20204;-74
2023/01/14 13:24:43;;;;;;;1.40;0.50;;;10.70;99.90;;;;;;5072963;28;20174;-75
2023/01/14 13:27:40;;;;;;;2.15;0.60;;;10.80;99.90;;;;;;5074806;28;20258;-76
2023/01/14 13:30:17;;;;;;;1.52;0.63;;;10.80;99.90;;;;;;5071038;28;20542;-76
2023/01/14 13:32:59;;;;;;;1.10;0.50;;;10.80;99.90;;;;;;5070676;28;20309;-76
2023/01/14 13:35:26;;;;;;;3.65;0.85;;;10.90;99.90;;;;;;5048866;28;20181;-76
2023/01/14 13:37:53;;;;;;;1.30;0.50;;;10.90;99.90;;;;;;5086438;28;20175;-76
2023/01/14 13:40:29;;;;;;;1.95;0.50;;;10.90;99.90;;;;;;5053595;28;20174;-77
2023/01/14 13:43:25;;;;;;;2.40;0.60;;;11.00;99.90;;;;;;5070618;28;20172;-77
2023/01/14 13:46:01;;;;;;;1.08;0.40;;;11.00;99.90;;;;;;5071213;28;20175;-74
2023/01/14 13:48:41;;;;;;;1.73;0.60;;;11.00;99.90;;;;;;5074303;28;20195;-75
2023/01/14 13:51:38;;;;;;;1.40;0.45;;;11.00;99.90;;;;;;5074517;28;20191;-75
2023/01/14 13:54:11;;;;;;;1.42;0.47;;;11.10;99.90;;;;;;5072468;28;20566;-76
2023/01/14 13:56:44;;;;;;;1.23;0.50;;;11.10;99.90;;;;;;5072321;28;20172;-75
2023/01/14 13:59:30;;;;;;;2.10;0.50;;;11.10;99.90;;;;;;5071754;28;20196;-75